createdAt,value
2024-03-28T00:01:18.090Z,96270.30
2024-03-28T00:04:55.736Z,96264.59
2024-03-28T00:08:33.847Z,96258.67
2024-03-28T00:12:11.254Z,96257.75
2024-03-28T00:15:57.902Z,96257.88
2024-03-28T00:19:39.189Z,96251.39
2024-03-28T00:23:14.840Z,96243.26
2024-03-28T00:26:56.073Z,96249.09
2024-03-28T00:30:31.960Z,96244.14
2024-03-28T00:34:12.233Z,96241.66
2024-03-28T00:37:53.574Z,96237.58
2024-03-28T00:41:31.164Z,96232.21
2024-03-28T00:45:09.384Z,96234.27
2024-03-28T00:48:44.550Z,96230.05
2024-03-28T00:52:26.170Z,96230.58
2024-03-28T00:56:01.902Z,96233.13
2024-03-28T00:59:43.479Z,96233.45
2024-03-28T01:03:18.943Z,96233.77
2024-03-28T01:06:58.171Z,96230.64
2024-03-28T01:10:39.709Z,96228.48
2024-03-28T01:14:17.287Z,96221.73
2024-03-28T01:17:54.929Z,96218.21
2024-03-28T01:21:32.634Z,96198.27
2024-03-28T01:25:10.772Z,96199.33
2024-03-28T01:28:48.230Z,96195.27
2024-03-28T01:32:23.764Z,96173.55
2024-03-28T01:36:06.977Z,96163.61
2024-03-28T01:39:41.310Z,96162.81
2024-03-28T01:43:22.670Z,96157.91
2024-03-28T01:47:17.416Z,96161.73
2024-03-28T01:51:00.759Z,96155.59
2024-03-28T01:54:40.534Z,96157.73
2024-03-28T01:58:18.970Z,96156.23
2024-03-28T02:01:55.135Z,96149.26
2024-03-28T02:05:31.531Z,96148.89
2024-03-28T02:09:10.385Z,96152.20
2024-03-28T02:12:52.027Z,96152.30
2024-03-28T02:16:36.203Z,96157.91
2024-03-28T02:20:08.922Z,96159.45
2024-03-28T02:23:42.984Z,96155.73
2024-03-28T02:27:24.196Z,96156.39
2024-03-28T02:31:03.001Z,96148.15
2024-03-28T02:34:58.705Z,96143.44
2024-03-28T02:38:17.601Z,96141.23
2024-03-28T02:41:55.245Z,96146.85
2024-03-28T02:45:32.838Z,96146.77
2024-03-28T02:49:14.682Z,96140.90
2024-03-28T02:52:48.221Z,96137.56
2024-03-28T02:56:26.124Z,96132.39
2024-03-28T03:00:04.567Z,96130.79
2024-03-28T03:03:39.509Z,96134.16
2024-03-28T03:07:20.832Z,96127.27
2024-03-28T03:10:56.524Z,96119.15
2024-03-28T03:14:37.729Z,96120.73
2024-03-28T03:18:15.674Z,96117.91
2024-03-28T03:21:53.576Z,96114.73
2024-03-28T03:25:42.736Z,96117.62
2024-03-28T03:29:27.512Z,96124.27
2024-03-28T03:33:24.421Z,96120.05
2024-03-28T03:36:24.048Z,96119.65
2024-03-28T03:40:02.237Z,96131.17
2024-03-28T03:43:38.132Z,96130.78
2024-03-28T03:47:17.389Z,96124.83
2024-03-28T03:50:58.091Z,96117.52
2024-03-28T03:54:40.558Z,96121.55
2024-03-28T03:58:15.165Z,96118.20
2024-03-28T04:01:54.381Z,96120.13
2024-03-28T04:05:35.138Z,96127.36
2024-03-28T04:09:14.742Z,96131.64
2024-03-28T04:12:57.887Z,96128.13
2024-03-28T04:16:34.385Z,96127.30
2024-03-28T04:20:12.416Z,96122.18
2024-03-28T04:23:47.740Z,96121.61
2024-03-28T04:27:29.373Z,96104.25
2024-03-28T04:31:04.911Z,96101.95
2024-03-28T04:34:44.252Z,96108.77
2024-03-28T04:38:23.728Z,96104.60
2024-03-28T04:42:05.157Z,96108.63
2024-03-28T04:45:40.779Z,96103.77
2024-03-28T04:49:22.335Z,96095.45
2024-03-28T04:52:57.977Z,96102.87
2024-03-28T04:56:41.850Z,96109.85
2024-03-28T05:04:31.694Z,96106.53
2024-03-28T05:08:13.885Z,96106.77
2024-03-28T05:11:50.322Z,96106.81
2024-03-28T05:15:29.803Z,96103.54
2024-03-28T05:19:09.075Z,96107.94
2024-03-28T05:22:50.589Z,96109.06
2024-03-28T05:26:27.988Z,96104.98
2024-03-28T05:30:06.429Z,96112.55
2024-03-28T05:33:41.736Z,96119.84
2024-03-28T05:37:23.744Z,96125.49
2024-03-28T05:40:58.964Z,96120.59
2024-03-28T05:44:42.997Z,96113.91
2024-03-28T05:48:16.587Z,96106.27
2024-03-28T05:52:02.236Z,96103.91
2024-03-28T05:55:36.595Z,96109.00
2024-03-28T05:59:11.960Z,96118.50
2024-03-28T06:03:07.178Z,96126.55
2024-03-28T09:02:50.826Z,96483.79
2024-03-28T09:05:41.060Z,96493.70
2024-03-28T09:09:19.490Z,96500.16
2024-03-28T09:12:56.596Z,96500.08
2024-03-28T09:16:35.699Z,96498.06
2024-03-28T09:20:14.662Z,96490.71
2024-03-28T09:23:49.636Z,96498.21
2024-03-28T09:27:30.814Z,96508.66
2024-03-28T09:31:07.259Z,96516.55
2024-03-28T09:34:42.661Z,96526.25
2024-03-28T09:38:20.626Z,96518.20
2024-03-28T09:42:02.614Z,96492.71
2024-03-28T09:45:36.533Z,96497.40
2024-03-28T09:49:14.116Z,96510.73
2024-03-28T09:52:56.228Z,96510.66
2024-03-28T09:56:38.876Z,96517.58
2024-03-28T10:00:14.107Z,96521.86
2024-03-28T10:04:01.305Z,96527.98
2024-03-28T10:07:33.887Z,96537.21
2024-03-28T10:11:12.081Z,96563.41
2024-03-28T10:14:56.046Z,96583.89
2024-03-28T10:18:26.495Z,96579.77
2024-03-28T10:22:23.146Z,96582.30
2024-03-28T10:25:42.009Z,96590.33
2024-03-28T10:29:20.197Z,96590.58
2024-03-28T10:33:05.281Z,96593.05
2024-03-28T10:36:49.359Z,96578.42
2024-03-28T10:40:33.124Z,96593.88
2024-03-28T10:44:10.967Z,96590.75
2024-03-28T10:47:44.911Z,96596.17
2024-03-28T10:51:24.334Z,96590.27
2024-03-28T10:55:45.923Z,96591.48
2024-03-28T10:58:44.792Z,96604.32
2024-03-28T11:02:23.279Z,96613.59
2024-03-28T11:05:59.947Z,96615.52
2024-03-28T11:09:35.372Z,96612.92
2024-03-28T11:13:15.089Z,96606.37
2024-03-28T11:17:06.724Z,96618.22
2024-03-28T11:20:32.572Z,96612.92
2024-03-28T11:24:20.679Z,96606.70
2024-03-28T11:28:03.461Z,96615.50
2024-03-28T11:31:45.229Z,96609.91
2024-03-28T11:35:11.358Z,96615.69
2024-03-28T11:38:45.002Z,96620.58
2024-03-28T13:15:34.734Z,96736.31
2024-03-28T13:18:24.114Z,96734.19
2024-03-28T13:22:02.228Z,96723.90
2024-03-28T13:25:51.536Z,96718.09
2024-03-28T13:29:16.753Z,96716.77
2024-03-28T13:32:56.049Z,96715.82
2024-03-28T13:36:39.104Z,96712.11
2024-03-28T13:40:15.210Z,96711.39
2024-03-28T13:43:51.087Z,96708.74
2024-03-28T13:47:32.949Z,96714.59
2024-03-28T13:51:10.873Z,96722.42
2024-03-28T13:54:48.242Z,96735.23
2024-03-28T13:58:26.179Z,96740.29
2024-03-28T14:02:02.696Z,96746.30
2024-03-28T14:05:44.692Z,96751.65
2024-03-28T14:09:21.724Z,96751.73
2024-03-28T14:12:59.831Z,96755.48
2024-03-28T14:16:35.714Z,96755.42
2024-03-28T14:20:19.329Z,96759.52
2024-03-28T14:29:14.072Z,96778.83
2024-03-28T14:32:55.465Z,96778.88
2024-03-28T14:36:31.419Z,96776.27
2024-03-28T14:40:14.058Z,96797.00
2024-03-28T14:43:50.878Z,96807.98
2024-03-28T14:47:28.376Z,96814.04
2024-03-28T14:51:08.844Z,96813.73
2024-03-28T14:54:49.190Z,96814.61
2024-03-28T14:58:24.059Z,96823.44
2024-03-28T15:02:12.243Z,96829.31
2024-03-28T15:05:57.468Z,96833.88
2024-03-28T15:09:27.525Z,96822.90
2024-03-28T15:13:05.323Z,96827.70
2024-03-28T15:16:42.934Z,96830.75
2024-03-28T15:20:33.844Z,96844.75
2024-03-28T15:23:58.265Z,96856.36
2024-03-28T15:27:36.168Z,96859.70
2024-03-28T15:31:11.801Z,96872.27
2024-03-28T15:34:55.284Z,96874.65
2024-03-28T15:38:30.858Z,96875.45
2024-03-28T15:42:09.003Z,96876.82
2024-03-28T15:45:47.195Z,96882.77
2024-03-28T15:49:25.894Z,96889.10
2024-03-28T15:53:01.871Z,96889.27
2024-03-28T15:56:41.050Z,96892.77
2024-03-28T16:00:15.495Z,96897.34
2024-03-28T16:03:57.827Z,96904.67
2024-03-28T16:07:32.689Z,96915.09
2024-03-28T16:11:15.360Z,96932.62
2024-03-28T16:14:54.885Z,96937.16
2024-03-28T16:18:32.088Z,96959.60
2024-03-28T16:22:07.713Z,96970.70
2024-03-28T16:25:43.364Z,96986.29
2024-03-28T16:29:25.285Z,96992.48
2024-03-28T16:33:02.587Z,96992.75
2024-03-28T16:36:40.501Z,97014.54
2024-03-28T17:04:34.595Z,97029.87
2024-03-28T17:07:22.234Z,97035.89
2024-03-28T17:11:01.164Z,97036.52
2024-03-28T17:14:37.726Z,97046.96
2024-03-28T17:18:19.433Z,97041.86
2024-03-28T17:21:57.270Z,97037.12
2024-03-28T17:25:37.729Z,97027.80
2024-03-28T17:29:07.193Z,97026.95
2024-03-28T17:32:46.763Z,97031.58
2024-03-28T17:36:28.279Z,97034.34
2024-03-28T17:50:33.404Z,97050.92
2024-03-28T17:53:22.160Z,97050.72
2024-03-28T17:57:00.697Z,97053.17
2024-03-28T18:00:44.347Z,97050.20
2024-03-28T18:04:16.897Z,97052.89
2024-03-28T18:07:56.557Z,97051.63
2024-03-28T18:11:31.393Z,97057.07
2024-03-28T18:15:08.611Z,97074.08
2024-03-28T18:18:44.553Z,97080.95
2024-03-28T18:22:32.885Z,97088.58
2024-03-28T18:26:07.050Z,97087.83
2024-03-28T18:29:41.454Z,97096.11
2024-03-28T18:33:23.634Z,97111.52
2024-03-28T18:36:56.966Z,97134.63
2024-03-28T18:40:34.784Z,97147.05
2024-03-28T18:44:12.125Z,97157.72
2024-03-28T18:47:47.960Z,97166.81
2024-03-28T18:51:29.683Z,97178.75
2024-03-28T18:55:08.132Z,97192.14
2024-03-28T18:58:45.024Z,97200.73
2024-03-28T19:02:22.594Z,97199.23
2024-03-28T19:05:58.841Z,97205.20
2024-03-28T19:09:38.605Z,97216.50
2024-03-28T19:13:18.284Z,97219.88
2024-03-28T19:17:00.078Z,97223.71
2024-03-28T19:20:46.407Z,97223.09
2024-03-28T19:24:13.384Z,97212.45
2024-03-28T19:27:52.719Z,97201.88
2024-03-28T19:31:36.575Z,97195.48
2024-03-28T19:35:10.068Z,97200.36
2024-03-28T19:38:52.395Z,97213.73
2024-03-28T19:42:31.524Z,97222.92
2024-03-28T19:46:14.352Z,97229.43
2024-03-28T19:49:50.471Z,97235.09
2024-03-28T19:53:33.254Z,97236.86
2024-03-28T19:57:10.374Z,97236.35
2024-03-28T20:00:48.183Z,97240.71
2024-03-28T20:04:25.878Z,97259.58
2024-03-28T20:08:06.955Z,97274.63
2024-03-28T20:11:41.096Z,97276.54
2024-03-28T20:15:17.003Z,97279.05
2024-03-28T20:18:58.547Z,97282.52
2024-03-28T20:22:36.317Z,97285.88
2024-03-28T20:26:13.788Z,97288.88
2024-03-28T20:29:52.086Z,97290.49
2024-03-28T20:33:29.396Z,97284.30
2024-03-28T20:37:11.778Z,97287.33
2024-03-28T20:40:53.758Z,97303.81
2024-03-28T20:44:36.456Z,97322.98
2024-03-28T20:48:13.120Z,97330.14
2024-03-28T20:51:48.846Z,97333.10
2024-03-28T20:55:30.708Z,97334.40
2024-03-28T20:59:06.302Z,97340.30
2024-03-28T21:03:09.101Z,97348.34
2024-03-28T21:06:44.423Z,97357.24
2024-03-28T21:10:22.191Z,97361.98
2024-03-28T21:13:41.810Z,97370.92
2024-03-28T21:17:19.352Z,97375.15
2024-03-28T21:20:57.569Z,97379.45
2024-03-28T21:24:34.452Z,97391.84
2024-03-28T21:28:09.886Z,97392.62
2024-03-28T21:31:49.573Z,97399.31
2024-03-28T21:35:29.299Z,97401.90
2024-03-28T21:39:11.259Z,97404.73
2024-03-28T21:42:52.950Z,97409.89
2024-03-28T21:46:30.684Z,97422.08
2024-03-28T21:50:08.819Z,97428.04
2024-03-28T21:53:51.051Z,97431.80
2024-03-28T21:57:27.669Z,97438.42
2024-03-28T22:01:09.338Z,97431.08
2024-03-28T22:04:49.386Z,97430.30
2024-03-28T22:08:35.874Z,97438.13
2024-03-28T22:12:11.868Z,97441.79
2024-03-28T22:15:46.482Z,97449.02
2024-03-28T22:19:26.855Z,97450.19
2024-03-28T22:23:08.219Z,97460.33
2024-03-28T22:26:44.839Z,97470.77
2024-03-28T22:30:26.238Z,97474.68
2024-03-28T22:34:04.016Z,97478.52
2024-03-28T22:37:43.837Z,97484.48
2024-03-28T22:41:19.470Z,97484.64
2024-03-28T22:44:57.456Z,97493.08
2024-03-28T22:48:34.985Z,97497.32
2024-03-28T22:52:13.594Z,97501.96
2024-03-28T22:55:57.785Z,97509.34
2024-03-28T22:59:28.328Z,97520.73
2024-03-28T23:03:06.000Z,97517.40
2024-03-28T23:06:47.329Z,97525.53
2024-03-28T23:10:21.268Z,97538.96
2024-03-28T23:13:59.022Z,97547.03
2024-03-28T23:17:36.636Z,97561.46
2024-03-28T23:21:12.532Z,97568.05
2024-03-28T23:24:54.111Z,97572.59
2024-03-28T23:28:29.770Z,97585.48
2024-03-28T23:32:12.163Z,97591.64
2024-03-28T23:35:49.045Z,97596.95
2024-03-28T23:39:27.384Z,97596.40
2024-03-28T23:43:02.477Z,97606.52
2024-03-28T23:46:45.287Z,97612.76
2024-03-28T23:50:19.771Z,97613.99
2024-03-28T23:53:59.259Z,97614.17
2024-03-28T23:57:38.582Z,97627.79
